createdAt,value
2023-04-28T00:02:52.278Z,7.10
2023-04-28T00:05:57.707Z,5.13
2023-04-28T00:09:02.442Z,5.35
2023-04-28T00:12:07.445Z,7.90
2023-04-28T00:15:13.374Z,5.32
2023-04-28T00:18:17.860Z,7.22
2023-04-28T00:21:22.957Z,6.47
2023-04-28T00:24:27.672Z,5.50
2023-04-28T00:27:34.415Z,6.65
2023-04-28T00:30:38.729Z,5.85
2023-04-28T00:33:44.287Z,5.03
2023-04-28T00:36:48.837Z,4.97
2023-04-28T00:39:56.717Z,4.93
2023-04-28T00:43:01.586Z,5.10
2023-04-28T00:46:06.424Z,4.80
2023-04-28T00:49:11.250Z,6.30
2023-04-28T00:52:16.396Z,6.18
2023-04-28T00:55:22.596Z,6.05
2023-04-28T00:58:27.958Z,4.30
2023-04-28T01:01:33.496Z,5.25
2023-04-28T01:04:38.551Z,5.03
2023-04-28T01:07:43.811Z,6.15
2023-04-28T01:10:48.321Z,5.00
2023-04-28T01:14:09.635Z,5.43
2023-04-28T01:17:18.230Z,5.07
2023-04-28T01:20:22.919Z,6.00
2023-04-28T01:23:27.932Z,5.05
2023-04-28T01:26:32.698Z,4.22
2023-04-28T01:29:39.185Z,4.35
2023-04-28T01:32:43.856Z,6.18
2023-04-28T01:35:48.494Z,5.03
2023-04-28T01:38:54.994Z,4.47
2023-04-28T01:41:59.476Z,4.40
2023-04-28T01:45:05.274Z,5.18
2023-04-28T01:48:09.593Z,5.35
2023-04-28T01:51:14.270Z,5.43
2023-04-28T01:54:19.085Z,5.38
2023-04-28T01:57:24.088Z,5.63
2023-04-28T02:00:29.159Z,5.95
2023-04-28T02:03:34.208Z,4.85
2023-04-28T02:06:40.975Z,5.10
2023-04-28T02:09:46.334Z,5.70
2023-04-28T02:12:51.014Z,5.25
2023-04-28T02:15:55.804Z,5.43
2023-04-28T02:19:00.658Z,4.97
2023-04-28T02:22:06.145Z,5.07
2023-04-28T02:25:10.943Z,5.10
2023-04-28T02:28:16.360Z,6.20
2023-04-28T02:31:20.947Z,5.68
2023-04-28T02:34:31.139Z,5.53
2023-04-28T02:37:42.576Z,4.22
2023-04-28T02:40:47.341Z,5.10
2023-04-28T02:43:52.135Z,5.40
2023-04-28T02:46:56.640Z,5.53
2023-04-28T02:50:04.362Z,5.00
2023-04-28T02:53:08.891Z,8.32
2023-04-28T02:56:13.727Z,5.07
2023-04-28T02:59:18.625Z,5.07
2023-04-28T03:02:23.419Z,5.38
2023-04-28T03:05:28.399Z,5.43
2023-04-28T03:08:32.624Z,5.68
2023-04-28T03:11:37.669Z,5.70
2023-04-28T03:14:42.175Z,5.10
2023-04-28T03:17:47.658Z,5.90
2023-04-28T03:20:52.839Z,3.90
2023-04-28T03:23:57.256Z,6.10
2023-04-28T03:27:04.499Z,6.57
2023-04-28T03:30:10.420Z,5.63
2023-04-28T03:33:15.173Z,5.55
2023-04-28T03:36:19.807Z,5.20
2023-04-28T03:39:24.989Z,7.00
2023-04-28T03:42:29.354Z,6.43
2023-04-28T03:45:47.460Z,5.38
2023-04-28T03:48:53.322Z,8.20
2023-04-28T03:51:57.873Z,6.55
2023-04-28T03:55:03.581Z,5.63
2023-04-28T03:58:08.281Z,5.32
2023-04-28T04:01:12.754Z,6.53
2023-04-28T04:04:18.142Z,5.35
2023-04-28T04:07:23.511Z,6.25
2023-04-28T04:10:27.890Z,7.20
2023-04-28T04:13:32.753Z,7.85
2023-04-28T04:16:37.630Z,6.40
2023-04-28T04:19:43.316Z,5.32
2023-04-28T04:22:48.874Z,5.07
2023-04-28T04:25:53.262Z,5.47
2023-04-28T04:28:57.747Z,5.43
2023-04-28T04:32:02.257Z,7.90
2023-04-28T04:35:07.514Z,6.55
2023-04-28T04:38:13.667Z,6.43
2023-04-28T04:41:21.932Z,4.95
2023-04-28T04:44:29.865Z,6.47
2023-04-28T04:47:35.510Z,5.25
2023-04-28T04:50:41.262Z,5.72
2023-04-28T04:53:46.007Z,5.60
2023-04-28T04:56:51.315Z,6.65
2023-04-28T05:00:06.842Z,5.40
2023-04-28T05:03:12.776Z,5.80
2023-04-28T05:06:18.820Z,8.60
2023-04-28T05:09:26.872Z,6.50
2023-04-28T05:12:31.424Z,6.65
2023-04-28T05:15:35.825Z,8.10
2023-04-28T05:19:06.385Z,6.68
2023-04-28T05:22:12.148Z,8.20
2023-04-28T05:25:16.684Z,7.97
2023-04-28T05:28:22.244Z,7.43
2023-04-28T05:31:30.449Z,9.65
2023-04-28T05:34:35.830Z,9.68
2023-04-28T05:37:43.056Z,9.07
2023-04-28T05:40:48.104Z,8.15
2023-04-28T05:43:52.831Z,8.52
2023-04-28T05:46:57.601Z,8.40
2023-04-28T05:50:05.339Z,9.35
2023-04-28T05:53:09.940Z,9.68
2023-04-28T05:56:16.343Z,9.85
2023-04-28T05:59:21.029Z,7.85
2023-04-28T06:02:27.416Z,7.72
2023-04-28T06:05:34.284Z,7.15
2023-04-28T06:08:39.624Z,8.43
2023-04-28T06:11:43.996Z,6.85
2023-04-28T06:14:48.475Z,7.90
2023-04-28T06:17:53.952Z,11.35
2023-04-28T06:20:59.252Z,6.80
2023-04-28T06:24:04.023Z,7.97
2023-04-28T06:27:08.936Z,8.50
2023-04-28T06:30:23.221Z,8.23
2023-04-28T06:33:27.573Z,6.10
2023-04-28T06:36:32.964Z,6.43
2023-04-28T06:39:38.193Z,7.72
2023-04-28T06:42:42.829Z,7.65
2023-04-28T06:45:56.331Z,6.47
2023-04-28T06:49:03.069Z,7.82
2023-04-28T06:52:08.027Z,7.95
2023-04-28T06:55:19.747Z,9.43
2023-04-28T06:58:24.777Z,8.00
2023-04-28T07:01:29.878Z,7.10
2023-04-28T07:04:34.602Z,6.97
2023-04-28T07:07:39.447Z,10.18
2023-04-28T07:10:44.348Z,7.55
2023-04-28T07:13:51.580Z,8.25
2023-04-28T07:16:56.592Z,10.25
2023-04-28T07:20:01.157Z,11.50
2023-04-28T07:23:05.876Z,11.68
2023-04-28T07:26:11.785Z,10.15
2023-04-28T07:29:17.304Z,11.48
2023-04-28T07:32:22.033Z,11.68
2023-04-28T07:35:26.627Z,11.60
2023-04-28T07:38:41.573Z,12.07
2023-04-28T07:41:46.172Z,13.57
2023-04-28T07:44:50.606Z,9.75
2023-04-28T07:47:55.784Z,8.90
2023-04-28T07:51:00.167Z,9.55
2023-04-28T07:54:05.024Z,12.32
2023-04-28T07:57:10.960Z,9.85
2023-04-28T08:00:16.100Z,10.00
2023-04-28T08:03:21.483Z,10.00
2023-04-28T08:06:26.293Z,10.50
2023-04-28T08:09:31.153Z,9.30
2023-04-28T08:12:36.330Z,10.23
2023-04-28T08:15:40.815Z,8.63
2023-04-28T08:18:46.093Z,7.28
2023-04-28T08:21:51.020Z,9.52
2023-04-28T08:24:55.291Z,10.32
2023-04-28T08:28:00.261Z,10.00
2023-04-28T08:31:05.562Z,13.05
2023-04-28T08:34:09.992Z,15.05
2023-04-28T08:37:14.680Z,16.63
2023-04-28T08:40:19.187Z,9.45
2023-04-28T08:43:25.653Z,10.68
2023-04-28T08:46:31.055Z,13.60
2023-04-28T08:49:37.138Z,9.57
2023-04-28T08:52:43.476Z,10.02
2023-04-28T08:55:50.068Z,9.20
2023-04-28T08:58:55.854Z,10.02
2023-04-28T09:02:00.877Z,9.55
2023-04-28T09:05:12.122Z,11.50
2023-04-28T09:08:17.918Z,9.95
2023-04-28T09:11:23.599Z,8.77
2023-04-28T09:14:30.767Z,8.95
2023-04-28T09:17:52.160Z,12.63
2023-04-28T09:21:13.322Z,11.18
2023-04-28T09:24:40.806Z,12.35
2023-04-28T09:27:45.614Z,11.43
2023-04-28T09:30:50.731Z,11.10
2023-04-28T09:34:00.267Z,10.18
2023-04-28T09:37:16.954Z,9.50
2023-04-28T09:40:21.548Z,11.45
2023-04-28T09:43:34.774Z,11.15
2023-04-28T09:46:40.309Z,9.97
2023-04-28T09:49:56.307Z,12.55
2023-04-28T09:53:04.133Z,8.57
2023-04-28T09:56:09.825Z,12.45
2023-04-28T09:59:15.196Z,8.75
2023-04-28T10:05:29.507Z,10.63
2023-04-28T10:08:36.060Z,7.80
2023-04-28T10:11:40.793Z,11.13
2023-04-28T10:14:46.662Z,9.02
2023-04-28T10:17:51.890Z,9.07
2023-04-28T10:21:01.106Z,10.30
2023-04-28T10:24:10.095Z,9.23
2023-04-28T10:27:14.958Z,9.77
2023-04-28T10:30:28.308Z,8.10
2023-04-28T10:33:33.819Z,9.38
2023-04-28T10:36:54.875Z,7.53
2023-04-28T10:40:34.900Z,8.20
2023-04-28T10:43:40.263Z,10.85
2023-04-28T10:47:04.530Z,9.98
2023-04-28T10:50:11.287Z,11.10
2023-04-28T10:53:16.261Z,8.63
2023-04-28T10:56:23.552Z,7.65
2023-04-28T10:59:28.538Z,8.82
2023-04-28T11:02:41.090Z,7.53
2023-04-28T11:06:24.960Z,6.82
2023-04-28T11:09:32.460Z,7.07
2023-04-28T11:12:36.960Z,6.75
2023-04-28T11:15:41.822Z,7.40
2023-04-28T11:19:04.824Z,7.68
2023-04-28T11:22:21.880Z,8.70
2023-04-28T11:25:26.285Z,10.48
2023-04-28T11:28:31.029Z,6.47
2023-04-28T11:31:35.789Z,5.93
2023-04-28T11:34:40.521Z,6.60
2023-04-28T11:37:45.519Z,6.50
2023-04-28T11:40:58.148Z,6.10
2023-04-28T11:44:14.964Z,7.07
2023-04-28T11:47:34.340Z,5.20
2023-04-28T11:50:39.156Z,4.28
2023-04-28T11:53:45.313Z,5.18
2023-04-28T11:56:50.588Z,4.78
2023-04-28T12:00:21.802Z,7.97
2023-04-28T12:03:26.847Z,18.98
2023-04-28T12:06:32.381Z,10.40
2023-04-28T12:09:39.646Z,4.30
2023-04-28T12:12:51.772Z,4.55
2023-04-28T12:16:01.328Z,5.53
2023-04-28T12:19:10.055Z,5.90
2023-04-28T12:22:17.602Z,7.53
2023-04-28T12:25:22.118Z,5.97
2023-04-28T12:28:40.971Z,5.18
2023-04-28T12:31:52.823Z,7.22
2023-04-28T12:34:58.136Z,6.82
2023-04-28T12:38:02.887Z,6.90
2023-04-28T12:41:07.949Z,7.32
2023-04-28T12:44:12.376Z,7.15
2023-04-28T12:47:18.475Z,8.60
2023-04-28T12:50:24.290Z,7.47
2023-04-28T12:53:28.889Z,7.32
2023-04-28T12:56:33.983Z,8.55
2023-04-28T12:59:38.279Z,7.03
2023-04-28T13:02:43.331Z,6.45
2023-04-28T13:05:48.365Z,5.20
2023-04-28T13:08:53.749Z,6.50
2023-04-28T13:11:58.711Z,6.03
2023-04-28T13:15:04.142Z,6.30
2023-04-28T13:18:09.596Z,6.75
2023-04-28T13:21:14.602Z,5.03
2023-04-28T13:24:19.628Z,5.90
2023-04-28T13:27:24.626Z,5.43
2023-04-28T13:30:29.577Z,5.13
2023-04-28T13:33:34.458Z,4.88
2023-04-28T13:36:39.413Z,5.30
2023-04-28T13:39:44.423Z,4.82
2023-04-28T13:42:49.058Z,6.68
2023-04-28T13:45:54.037Z,5.60
2023-04-28T13:48:59.010Z,4.97
2023-04-28T13:52:03.845Z,5.07
2023-04-28T13:55:09.651Z,5.72
2023-04-28T13:58:14.245Z,6.90
2023-04-28T14:01:19.164Z,5.38
2023-04-28T14:04:24.140Z,5.45
2023-04-28T14:07:28.716Z,5.22
2023-04-28T14:10:33.312Z,5.10
2023-04-28T14:13:38.417Z,5.60
2023-04-28T14:16:43.070Z,5.47
2023-04-28T14:19:48.214Z,5.10
2023-04-28T14:22:53.282Z,5.07
2023-04-28T14:25:58.362Z,4.88
2023-04-28T14:29:02.949Z,5.85
2023-04-28T14:32:07.837Z,5.32
2023-04-28T14:35:14.024Z,4.35
2023-04-28T14:38:18.692Z,3.80
2023-04-28T14:41:23.613Z,4.78
2023-04-28T14:44:28.490Z,2.78
2023-04-28T14:47:33.949Z,3.67
2023-04-28T14:50:39.094Z,4.90
2023-04-28T14:53:43.816Z,3.75
2023-04-28T14:56:51.985Z,3.30
2023-04-28T14:59:56.548Z,3.90
2023-04-28T15:03:01.571Z,3.00
2023-04-28T15:06:06.518Z,4.20
2023-04-28T15:09:11.877Z,3.40
2023-04-28T15:12:17.036Z,3.58
2023-04-28T15:15:21.909Z,3.08
2023-04-28T15:18:26.370Z,3.95
2023-04-28T15:21:31.217Z,3.00
2023-04-28T15:24:35.863Z,3.42
2023-04-28T15:27:40.750Z,2.78
2023-04-28T15:30:45.596Z,3.90
2023-04-28T15:33:50.470Z,2.70
2023-04-28T15:36:55.614Z,2.58
2023-04-28T15:39:59.878Z,3.00
2023-04-28T15:43:04.622Z,2.75
2023-04-28T15:46:11.017Z,3.58
2023-04-28T15:49:15.616Z,3.45
2023-04-28T15:52:20.251Z,3.13
2023-04-28T15:55:25.348Z,3.30
2023-04-28T15:58:31.240Z,2.75
2023-04-28T16:02:00.319Z,3.25
2023-04-28T16:05:05.257Z,4.22
2023-04-28T16:08:10.096Z,4.07
2023-04-28T16:11:17.924Z,3.90
2023-04-28T16:14:22.475Z,4.63
2023-04-28T16:17:29.168Z,4.43
2023-04-28T16:20:33.775Z,4.00
2023-04-28T16:23:38.863Z,4.13
2023-04-28T16:26:43.847Z,5.43
2023-04-28T16:29:48.454Z,3.92
2023-04-28T16:32:53.380Z,4.40
2023-04-28T16:35:59.697Z,3.35
2023-04-28T16:39:04.380Z,4.18
2023-04-28T16:42:09.332Z,3.42
2023-04-28T16:45:14.309Z,5.32
2023-04-28T16:48:20.538Z,4.35
2023-04-28T16:51:25.209Z,3.75
2023-04-28T16:54:31.394Z,3.47
2023-04-28T16:57:36.376Z,3.47
2023-04-28T17:00:40.991Z,4.28
2023-04-28T17:03:46.338Z,5.07
2023-04-28T17:06:52.014Z,5.50
2023-04-28T17:09:56.771Z,5.05
2023-04-28T17:13:01.777Z,5.00
2023-04-28T17:16:06.780Z,6.18
2023-04-28T17:19:12.682Z,7.22
2023-04-28T17:22:17.697Z,6.85
2023-04-28T17:25:23.900Z,6.10
2023-04-28T17:28:28.710Z,6.90
2023-04-28T17:31:33.881Z,6.45
2023-04-28T17:34:38.143Z,8.27
2023-04-28T17:37:42.983Z,6.78
2023-04-28T17:40:48.683Z,7.20
2023-04-28T17:43:53.854Z,8.73
2023-04-28T17:46:58.714Z,8.50
2023-04-28T17:50:03.564Z,6.93
2023-04-28T17:53:08.049Z,6.35
2023-04-28T17:56:12.828Z,6.70
2023-04-28T17:59:18.383Z,6.40
2023-04-28T18:02:23.410Z,5.22
2023-04-28T18:05:29.282Z,6.05
2023-04-28T18:08:35.628Z,3.83
2023-04-28T18:11:40.510Z,4.53
2023-04-28T18:14:45.504Z,4.85
2023-04-28T18:17:50.119Z,3.95
2023-04-28T18:20:59.191Z,3.20
2023-04-28T18:24:03.793Z,3.88
2023-04-28T18:27:09.245Z,2.63
2023-04-28T18:30:14.320Z,2.78
2023-04-28T18:33:22.158Z,3.55
2023-04-28T18:36:27.960Z,2.55
2023-04-28T18:39:32.779Z,2.33
2023-04-28T18:42:37.981Z,2.92
2023-04-28T18:45:44.165Z,3.25
2023-04-28T18:48:49.469Z,2.38
2023-04-28T18:51:55.445Z,2.90
2023-04-28T18:55:00.665Z,5.40
2023-04-28T18:58:05.606Z,3.33
2023-04-28T19:01:15.657Z,2.92
2023-04-28T19:04:21.630Z,3.10
2023-04-28T19:07:26.473Z,2.75
2023-04-28T19:10:31.084Z,3.40
2023-04-28T19:13:36.774Z,3.72
2023-04-28T19:16:42.348Z,2.78
2023-04-28T19:19:47.475Z,3.97
2023-04-28T19:22:52.835Z,3.92
2023-04-28T19:25:59.086Z,3.50
2023-04-28T19:29:03.591Z,4.63
2023-04-28T19:32:09.945Z,4.55
2023-04-28T19:35:15.782Z,4.28
2023-04-28T19:38:22.866Z,4.05
2023-04-28T19:41:27.906Z,5.70
2023-04-28T19:44:33.682Z,5.47
2023-04-28T19:47:40.077Z,5.72
2023-04-28T19:50:44.819Z,5.95
2023-04-28T19:53:51.040Z,6.88
2023-04-28T19:56:55.827Z,6.82
2023-04-28T20:00:00.778Z,8.65
2023-04-28T20:03:05.493Z,9.32
2023-04-28T20:06:17.385Z,8.52
2023-04-28T20:09:22.110Z,8.85
2023-04-28T20:12:26.738Z,8.10
2023-04-28T20:15:31.469Z,8.25
2023-04-28T20:18:37.457Z,8.52
2023-04-28T20:21:42.403Z,8.68
2023-04-28T20:24:47.374Z,9.15
2023-04-28T20:27:52.121Z,9.73
2023-04-28T20:30:56.637Z,9.93
2023-04-28T20:34:01.546Z,8.82
2023-04-28T20:37:06.824Z,11.05
2023-04-28T20:40:12.130Z,9.82
2023-04-28T20:43:17.222Z,10.90
2023-04-28T20:46:22.520Z,10.60
2023-04-28T20:49:28.419Z,12.10
2023-04-28T20:52:32.825Z,11.00
2023-04-28T20:55:37.312Z,12.68
2023-04-28T20:58:42.558Z,12.30
2023-04-28T21:01:47.470Z,12.93
2023-04-28T21:04:52.275Z,13.38
2023-04-28T21:07:57.019Z,14.07
2023-04-28T21:11:01.277Z,18.80
2023-04-28T21:14:05.634Z,16.05
2023-04-28T21:17:10.224Z,13.00
2023-04-28T21:20:14.997Z,17.50
2023-04-28T21:23:19.683Z,16.58
2023-04-28T21:26:24.082Z,16.40
2023-04-28T21:29:28.990Z,14.70
2023-04-28T21:32:33.832Z,14.07
2023-04-28T21:35:38.569Z,15.43
2023-04-28T21:38:43.062Z,16.10
2023-04-28T21:41:47.360Z,19.45
2023-04-28T21:44:52.232Z,21.27
2023-04-28T21:47:58.274Z,32.80
2023-04-28T21:51:03.340Z,25.73
2023-04-28T21:54:09.382Z,25.25
2023-04-28T21:57:15.838Z,22.65
2023-04-28T22:00:22.814Z,35.17
2023-04-28T22:03:28.911Z,31.73
2023-04-28T22:06:33.541Z,30.98
2023-04-28T22:09:38.133Z,30.27
2023-04-28T22:12:42.648Z,29.98
2023-04-28T22:15:47.026Z,26.85
2023-04-28T22:18:51.878Z,30.80
2023-04-28T22:21:56.838Z,29.58
2023-04-28T22:25:01.683Z,34.75
2023-04-28T22:28:07.196Z,29.25
2023-04-28T22:31:11.891Z,33.13
2023-04-28T22:34:16.873Z,31.08
2023-04-28T22:37:21.808Z,29.63
2023-04-28T22:40:27.538Z,25.23
2023-04-28T22:43:32.329Z,35.92
2023-04-28T22:46:36.730Z,32.00
2023-04-28T22:49:41.127Z,32.55
2023-04-28T22:52:45.471Z,32.00
2023-04-28T22:55:50.919Z,25.23
2023-04-28T22:58:55.698Z,25.15
2023-04-28T23:02:00.357Z,20.70
2023-04-28T23:05:05.341Z,20.88
2023-04-28T23:08:09.908Z,19.45
2023-04-28T23:11:14.721Z,22.00
2023-04-28T23:14:19.524Z,18.35
2023-04-28T23:17:24.822Z,18.70
2023-04-28T23:20:29.414Z,18.77
2023-04-28T23:23:34.291Z,17.17
2023-04-28T23:26:39.748Z,17.42
2023-04-28T23:29:44.168Z,15.18
2023-04-28T23:32:49.029Z,15.82
2023-04-28T23:35:53.871Z,17.08
2023-04-28T23:38:58.286Z,17.02
2023-04-28T23:42:03.518Z,17.30
2023-04-28T23:45:09.801Z,17.60
2023-04-28T23:48:14.409Z,16.27
2023-04-28T23:51:18.970Z,17.10
2023-04-28T23:54:23.583Z,15.25
2023-04-28T23:57:27.877Z,17.65
